createdAt,value
2022-12-23T00:01:44.128Z,2.40
2022-12-23T00:04:11.005Z,2.70
2022-12-23T00:06:37.898Z,2.80
2022-12-23T00:09:06.737Z,3.27
2022-12-23T00:11:33.514Z,3.33
2022-12-23T00:14:21.883Z,3.77
2022-12-23T00:16:50.330Z,3.65
2022-12-23T00:19:18.507Z,4.13
2022-12-23T00:21:46.999Z,5.97
2022-12-23T00:24:13.798Z,3.53
2022-12-23T00:26:48.715Z,3.97
2022-12-23T00:29:16.888Z,3.38
2022-12-23T00:31:44.784Z,3.28
2022-12-23T00:34:13.185Z,3.45
2022-12-23T00:36:40.819Z,3.85
2022-12-23T00:42:37.237Z,3.35
2022-12-23T00:45:15.564Z,3.78
2022-12-23T00:48:06.383Z,2.70
2022-12-23T00:50:36.231Z,2.38
2022-12-23T00:53:03.462Z,2.40
2022-12-23T00:55:30.766Z,2.10
2022-12-23T00:57:57.992Z,2.55
2022-12-23T01:00:44.839Z,2.45
2022-12-23T01:03:53.994Z,2.97
2022-12-23T01:06:20.712Z,3.05
2022-12-23T01:08:47.470Z,3.33
2022-12-23T01:11:15.409Z,2.77
2022-12-23T01:13:42.231Z,3.28
2022-12-23T01:16:15.378Z,3.10
2022-12-23T01:18:44.529Z,3.42
2022-12-23T01:21:11.624Z,3.35
2022-12-23T01:23:38.361Z,3.03
2022-12-23T01:26:08.383Z,3.20
2022-12-23T01:28:36.078Z,4.30
2022-12-23T01:33:33.512Z,4.10
2022-12-23T01:36:05.610Z,4.85
2022-12-23T01:38:34.489Z,4.18
2022-12-23T01:41:01.453Z,4.07
2022-12-23T01:43:48.389Z,4.43
2022-12-23T01:46:15.976Z,4.03
2022-12-23T01:51:19.103Z,3.85
2022-12-23T01:53:51.602Z,4.03
2022-12-23T01:56:51.177Z,4.13
2022-12-23T02:02:23.222Z,4.40
2022-12-23T02:04:51.194Z,4.13
2022-12-23T02:07:37.081Z,5.32
2022-12-23T02:10:05.776Z,4.55
2022-12-23T02:12:57.874Z,4.72
2022-12-23T02:15:46.613Z,4.97
2022-12-23T02:18:51.678Z,5.20
2022-12-23T02:21:18.877Z,5.07
2022-12-23T02:23:51.608Z,4.88
2022-12-23T02:26:54.275Z,5.25
2022-12-23T02:29:52.423Z,4.80
2022-12-23T02:32:23.331Z,4.50
2022-12-23T02:35:10.397Z,5.20
2022-12-23T02:37:38.219Z,4.05
2022-12-23T02:40:37.508Z,4.80
2022-12-23T02:43:24.522Z,4.45
2022-12-23T02:46:10.117Z,4.53
2022-12-23T02:48:44.779Z,4.97
2022-12-23T02:51:17.650Z,4.30
2022-12-23T02:53:58.813Z,4.22
2022-12-23T02:56:30.376Z,4.45
2022-12-23T02:59:08.397Z,4.15
2022-12-23T03:01:36.068Z,4.03
2022-12-23T03:04:03.389Z,3.95
2022-12-23T03:06:35.936Z,4.63
2022-12-23T03:09:03.033Z,4.50
2022-12-23T03:11:51.863Z,4.78
2022-12-23T03:14:27.899Z,4.63
2022-12-23T03:17:13.086Z,4.80
2022-12-23T03:20:15.590Z,5.22
2022-12-23T03:23:06.697Z,4.38
2022-12-23T03:25:46.796Z,4.95
2022-12-23T03:28:20.300Z,4.93
2022-12-23T03:30:54.185Z,5.78
2022-12-23T03:33:28.504Z,5.03
2022-12-23T03:36:08.330Z,6.30
2022-12-23T03:38:39.696Z,5.18
2022-12-23T03:41:11.024Z,6.22
2022-12-23T03:43:55.839Z,5.88
2022-12-23T03:46:34.711Z,6.43
2022-12-23T03:49:07.616Z,6.50
2022-12-23T03:51:44.337Z,6.15
2022-12-23T03:54:18.120Z,6.22
2022-12-23T03:57:04.882Z,6.03
2022-12-23T03:59:36.686Z,5.85
2022-12-23T04:02:14.766Z,6.18
2022-12-23T04:05:05.960Z,6.20
2022-12-23T04:07:39.378Z,6.50
2022-12-23T04:10:08.708Z,7.22
2022-12-23T04:12:40.227Z,5.97
2022-12-23T04:15:12.734Z,5.43
2022-12-23T04:17:43.570Z,5.40
2022-12-23T04:20:14.006Z,5.85
2022-12-23T04:22:43.575Z,5.05
2022-12-23T04:25:12.189Z,5.35
2022-12-23T04:27:40.616Z,4.90
2022-12-23T04:30:15.044Z,4.82
2022-12-23T04:32:45.000Z,4.22
2022-12-23T04:35:12.758Z,4.82
2022-12-23T04:37:43.222Z,4.55
2022-12-23T04:40:11.755Z,5.22
2022-12-23T04:42:40.176Z,4.53
2022-12-23T04:45:10.812Z,5.00
2022-12-23T04:47:37.662Z,5.63
2022-12-23T04:50:06.784Z,9.45
2022-12-23T04:52:34.921Z,12.65
2022-12-23T04:55:01.997Z,5.60
2022-12-23T04:57:31.590Z,4.65
2022-12-23T05:00:00.845Z,4.82
2022-12-23T05:02:27.740Z,5.07
2022-12-23T05:04:54.744Z,4.63
2022-12-23T05:07:23.659Z,4.75
2022-12-23T05:09:55.622Z,4.60
2022-12-23T05:12:33.694Z,4.32
2022-12-23T05:15:00.657Z,3.90
2022-12-23T05:17:27.584Z,4.45
2022-12-23T05:19:54.580Z,3.72
2022-12-23T05:22:21.408Z,4.55
2022-12-23T05:24:57.043Z,4.03
2022-12-23T05:27:27.065Z,3.85
2022-12-23T05:29:57.631Z,3.55
2022-12-23T05:32:25.948Z,3.38
2022-12-23T05:34:59.991Z,3.85
2022-12-23T05:37:28.148Z,5.00
2022-12-23T05:39:56.180Z,3.55
2022-12-23T05:42:24.437Z,3.65
2022-12-23T05:44:51.709Z,8.93
2022-12-23T05:47:18.477Z,4.43
2022-12-23T05:49:54.870Z,6.40
2022-12-23T05:52:21.760Z,7.70
2022-12-23T05:54:48.749Z,6.35
2022-12-23T05:57:17.692Z,4.70
2022-12-23T05:59:45.674Z,5.03
2022-12-23T06:02:13.912Z,4.70
2022-12-23T06:04:44.995Z,4.93
2022-12-23T06:07:11.823Z,4.82
2022-12-23T06:09:39.778Z,5.10
2022-12-23T06:12:08.939Z,4.32
2022-12-23T06:14:38.935Z,3.60
2022-12-23T06:17:05.889Z,3.78
2022-12-23T06:19:33.887Z,14.38
2022-12-23T06:22:03.926Z,10.73
2022-12-23T06:24:31.880Z,4.85
2022-12-23T06:27:00.170Z,7.40
2022-12-23T06:29:27.163Z,9.70
2022-12-23T06:31:55.163Z,8.63
2022-12-23T06:34:28.706Z,5.95
2022-12-23T06:36:57.156Z,3.53
2022-12-23T06:39:24.146Z,6.65
2022-12-23T06:41:55.345Z,6.63
2022-12-23T06:44:24.260Z,5.18
2022-12-23T06:46:53.211Z,5.60
2022-12-23T06:49:20.381Z,4.28
2022-12-23T06:51:47.515Z,4.00
2022-12-23T06:54:22.871Z,6.97
2022-12-23T06:56:57.099Z,3.03
2022-12-23T06:59:31.810Z,3.50
2022-12-23T07:02:12.309Z,6.22
2022-12-23T07:04:40.582Z,18.67
2022-12-23T07:07:08.072Z,13.52
2022-12-23T07:09:34.965Z,5.78
2022-12-23T07:12:04.869Z,4.05
2022-12-23T07:14:39.736Z,9.27
2022-12-23T07:17:06.764Z,3.60
2022-12-23T07:19:34.249Z,3.10
2022-12-23T07:22:07.684Z,3.67
2022-12-23T07:24:34.638Z,1.77
2022-12-23T07:27:05.043Z,1.45
2022-12-23T07:29:33.919Z,1.50
2022-12-23T07:32:02.482Z,2.08
2022-12-23T07:34:31.507Z,2.03
2022-12-23T07:36:58.489Z,2.25
2022-12-23T07:39:25.487Z,3.00
2022-12-23T07:42:16.360Z,2.45
2022-12-23T07:44:42.690Z,2.90
2022-12-23T07:47:09.924Z,3.00
2022-12-23T07:49:36.777Z,2.95
2022-12-23T07:52:03.691Z,3.17
2022-12-23T07:54:38.422Z,2.53
2022-12-23T07:57:06.965Z,4.00
2022-12-23T07:59:33.837Z,4.60
2022-12-23T08:02:00.775Z,14.15
2022-12-23T08:04:36.645Z,22.83
2022-12-23T08:07:10.016Z,16.23
2022-12-23T08:09:48.724Z,23.77
2022-12-23T08:12:16.933Z,14.20
2022-12-23T08:14:52.677Z,14.98
2022-12-23T08:17:24.942Z,7.25
2022-12-23T08:19:52.972Z,4.10
2022-12-23T08:22:20.014Z,2.13
2022-12-23T08:24:47.153Z,1.90
2022-12-23T08:27:16.328Z,1.80
2022-12-23T08:29:44.114Z,3.30
2022-12-23T08:32:21.171Z,1.95
2022-12-23T08:34:50.135Z,1.60
2022-12-23T08:37:17.381Z,1.30
2022-12-23T08:39:54.532Z,1.30
2022-12-23T08:42:24.001Z,1.40
2022-12-23T08:45:01.266Z,1.02
2022-12-23T08:47:31.751Z,0.80
2022-12-23T08:50:04.126Z,0.82
2022-12-23T08:52:31.868Z,1.17
2022-12-23T08:55:00.176Z,0.95
2022-12-23T08:57:27.139Z,0.82
2022-12-23T08:59:59.306Z,0.70
2022-12-23T09:02:32.473Z,1.13
2022-12-23T09:05:02.330Z,0.88
2022-12-23T09:07:38.993Z,0.93
2022-12-23T09:10:12.820Z,1.20
2022-12-23T09:12:40.776Z,0.75
2022-12-23T09:15:11.230Z,0.75
2022-12-23T09:17:39.374Z,0.90
2022-12-23T09:20:11.141Z,0.90
2022-12-23T09:22:40.675Z,0.73
2022-12-23T09:25:18.271Z,0.93
2022-12-23T09:27:48.623Z,0.73
2022-12-23T09:30:20.049Z,0.82
2022-12-23T09:32:58.732Z,0.70
2022-12-23T09:35:27.809Z,0.70
2022-12-23T09:37:56.678Z,0.50
2022-12-23T09:40:37.104Z,0.47
2022-12-23T09:43:58.281Z,0.80
2022-12-23T09:46:29.064Z,0.80
2022-12-23T09:49:21.459Z,0.40
2022-12-23T09:51:56.003Z,0.52
2022-12-23T09:54:27.078Z,0.70
2022-12-23T09:57:08.653Z,1.20
2022-12-23T10:00:12.634Z,2.17
2022-12-23T10:03:01.418Z,1.63
2022-12-23T10:06:05.825Z,1.48
2022-12-23T10:08:44.789Z,1.85
2022-12-23T10:11:17.578Z,1.85
2022-12-23T10:13:58.940Z,1.45
2022-12-23T10:16:40.405Z,1.77
2022-12-23T10:19:18.171Z,4.45
2022-12-23T10:21:50.092Z,2.08
2022-12-23T10:24:33.717Z,1.70
2022-12-23T10:27:09.208Z,1.60
2022-12-23T10:29:41.258Z,2.38
2022-12-23T10:32:25.580Z,2.65
2022-12-23T10:35:19.015Z,2.17
2022-12-23T10:37:59.047Z,2.30
2022-12-23T10:40:48.075Z,1.65
2022-12-23T10:43:30.394Z,2.08
2022-12-23T10:46:42.954Z,2.25
2022-12-23T10:49:34.250Z,2.00
2022-12-23T10:52:28.381Z,1.63
2022-12-23T10:54:55.439Z,1.50
2022-12-23T10:57:24.755Z,1.90
2022-12-23T10:59:52.984Z,1.98
2022-12-23T11:02:39.756Z,3.40
2022-12-23T11:05:18.164Z,1.90
2022-12-23T11:07:47.307Z,5.18
2022-12-23T11:10:25.841Z,1.60
2022-12-23T11:12:55.537Z,1.95
2022-12-23T11:15:41.578Z,1.95
2022-12-23T11:18:20.129Z,1.10
2022-12-23T11:21:03.408Z,1.38
2022-12-23T11:23:40.119Z,1.40
2022-12-23T11:26:12.728Z,1.40
2022-12-23T11:28:55.722Z,4.35
2022-12-23T11:31:36.591Z,1.70
2022-12-23T11:34:37.630Z,3.22
2022-12-23T11:37:37.884Z,2.38
2022-12-23T11:40:29.764Z,1.52
2022-12-23T11:43:00.184Z,1.70
2022-12-23T11:45:32.148Z,1.60
2022-12-23T11:48:05.134Z,1.40
2022-12-23T11:50:40.743Z,1.80
2022-12-23T11:53:25.519Z,1.63
2022-12-23T11:56:10.018Z,3.20
2022-12-23T11:58:57.888Z,2.00
2022-12-23T12:01:26.981Z,1.85
2022-12-23T12:03:59.655Z,1.70
2022-12-23T12:06:28.371Z,1.58
2022-12-23T12:08:58.955Z,1.50
2022-12-23T12:11:34.865Z,1.77
2022-12-23T12:14:05.289Z,1.30
2022-12-23T12:17:05.561Z,1.27
2022-12-23T12:20:12.788Z,1.35
2022-12-23T12:23:01.011Z,1.20
2022-12-23T12:25:59.992Z,1.77
2022-12-23T12:28:51.336Z,1.83
2022-12-23T12:31:45.574Z,1.67
2022-12-23T12:34:36.961Z,1.38
2022-12-23T12:37:35.121Z,2.10
2022-12-23T12:40:15.746Z,2.60
2022-12-23T12:42:48.954Z,4.30
2022-12-23T12:45:26.787Z,4.43
2022-12-23T12:48:16.455Z,1.90
2022-12-23T12:51:02.743Z,2.28
2022-12-23T12:53:33.471Z,3.03
2022-12-23T12:56:25.684Z,3.60
2022-12-23T12:58:56.709Z,4.05
2022-12-23T13:01:45.749Z,4.50
2022-12-23T13:07:39.788Z,2.65
2022-12-23T13:10:36.703Z,2.10
2022-12-23T13:13:23.552Z,3.58
2022-12-23T13:16:10.637Z,2.60
2022-12-23T13:19:33.789Z,10.30
2022-12-23T13:22:16.818Z,4.80
2022-12-23T13:25:18.096Z,4.15
2022-12-23T13:28:00.225Z,6.10
2022-12-23T13:30:32.926Z,4.90
2022-12-23T13:33:35.500Z,4.18
2022-12-23T13:36:15.775Z,2.90
2022-12-23T13:39:16.794Z,2.80
2022-12-23T13:41:51.506Z,3.03
2022-12-23T13:44:21.514Z,3.17
2022-12-23T13:47:19.132Z,2.85
2022-12-23T13:50:15.731Z,2.85
2022-12-23T13:53:25.930Z,7.15
2022-12-23T13:56:28.573Z,6.43
2022-12-23T13:58:56.228Z,3.22
2022-12-23T14:01:34.817Z,4.10
2022-12-23T14:04:30.033Z,4.40
2022-12-23T14:07:24.419Z,2.45
2022-12-23T14:09:56.318Z,1.70
2022-12-23T14:12:35.328Z,2.00
2022-12-23T14:15:29.384Z,4.00
2022-12-23T14:18:18.352Z,4.65
2022-12-23T14:24:04.432Z,2.38
2022-12-23T14:27:07.306Z,2.33
2022-12-23T14:30:05.983Z,2.70
2022-12-23T14:32:43.031Z,2.42
2022-12-23T14:35:35.452Z,2.30
2022-12-23T14:38:28.829Z,2.75
2022-12-23T14:41:23.013Z,3.97
2022-12-23T14:43:56.987Z,3.38
2022-12-23T14:46:39.143Z,3.85
2022-12-23T14:49:38.425Z,3.85
2022-12-23T14:52:39.320Z,4.53
2022-12-23T14:58:27.785Z,3.50
2022-12-23T15:01:12.932Z,3.28
2022-12-23T15:03:56.002Z,3.30
2022-12-23T15:06:40.959Z,3.60
2022-12-23T15:09:16.686Z,3.13
2022-12-23T15:11:52.134Z,5.30
2022-12-23T15:14:52.219Z,4.05
2022-12-23T15:17:29.640Z,3.92
2022-12-23T15:20:14.294Z,3.30
2022-12-23T15:22:44.629Z,3.95
2022-12-23T15:25:36.716Z,3.40
2022-12-23T15:28:06.582Z,3.38
2022-12-23T15:30:56.134Z,3.83
2022-12-23T15:34:01.500Z,3.90
2022-12-23T15:36:33.198Z,3.92
2022-12-23T15:39:07.434Z,2.97
2022-12-23T15:41:43.830Z,3.00
2022-12-23T15:44:16.092Z,4.80
2022-12-23T15:46:43.751Z,5.30
2022-12-23T15:52:07.909Z,6.93
2022-12-23T15:54:45.627Z,5.45
2022-12-23T15:57:18.612Z,10.85
2022-12-23T15:59:47.099Z,7.47
2022-12-23T16:05:37.685Z,13.63
2022-12-23T16:08:30.259Z,11.38
2022-12-23T16:11:16.971Z,13.80
2022-12-23T16:13:59.759Z,7.70
2022-12-23T16:16:41.875Z,8.75
2022-12-23T16:19:36.896Z,8.75
2022-12-23T16:22:33.412Z,5.63
2022-12-23T16:25:19.970Z,4.28
2022-12-23T16:27:57.021Z,2.78
2022-12-23T16:30:37.207Z,2.83
2022-12-23T16:33:06.990Z,4.63
2022-12-23T16:35:43.070Z,9.38
2022-12-23T16:38:14.903Z,10.50
2022-12-23T16:40:45.044Z,8.52
2022-12-23T16:43:11.863Z,6.88
2022-12-23T16:45:41.306Z,3.80
2022-12-23T16:48:29.527Z,5.72
2022-12-23T16:50:57.468Z,4.40
2022-12-23T16:53:24.470Z,5.15
2022-12-23T16:56:00.151Z,9.27
2022-12-23T16:58:29.600Z,6.63
2022-12-23T17:00:56.834Z,4.68
2022-12-23T17:03:23.749Z,4.43
2022-12-23T17:05:51.582Z,5.53
2022-12-23T17:08:18.365Z,4.18
2022-12-23T17:10:45.887Z,6.67
2022-12-23T17:13:15.531Z,7.00
2022-12-23T17:15:45.546Z,6.72
2022-12-23T17:18:20.791Z,5.22
2022-12-23T17:20:49.090Z,3.38
2022-12-23T17:23:29.324Z,3.90
2022-12-23T17:25:56.198Z,4.47
2022-12-23T17:28:23.391Z,4.38
2022-12-23T17:30:54.872Z,3.80
2022-12-23T17:33:26.824Z,3.78
2022-12-23T17:35:55.999Z,2.95
2022-12-23T17:38:23.306Z,2.80
2022-12-23T17:40:50.521Z,4.82
2022-12-23T17:43:18.678Z,3.63
2022-12-23T17:45:47.032Z,3.70
2022-12-23T17:48:20.210Z,3.58
2022-12-23T17:50:48.885Z,4.20
2022-12-23T17:53:20.140Z,5.53
2022-12-23T17:55:47.255Z,5.35
2022-12-23T17:58:15.330Z,3.80
2022-12-23T18:00:42.247Z,3.92
2022-12-23T18:03:22.806Z,2.53
2022-12-23T18:05:53.018Z,2.65
2022-12-23T18:08:24.167Z,2.17
2022-12-23T18:10:51.194Z,2.20
2022-12-23T18:13:22.875Z,2.22
2022-12-23T18:15:50.317Z,2.83
2022-12-23T18:18:28.542Z,2.25
2022-12-23T18:20:59.473Z,3.05
2022-12-23T18:23:32.118Z,1.85
2022-12-23T18:26:00.833Z,2.10
2022-12-23T18:28:28.667Z,1.60
2022-12-23T18:30:57.554Z,1.30
2022-12-23T18:33:30.472Z,1.17
2022-12-23T18:36:03.813Z,1.30
2022-12-23T18:38:31.605Z,1.02
2022-12-23T18:40:58.793Z,1.00
2022-12-23T18:43:26.545Z,0.80
2022-12-23T18:45:54.285Z,1.10
2022-12-23T18:48:21.798Z,1.00
2022-12-23T18:50:48.857Z,1.00
2022-12-23T18:53:24.406Z,0.90
2022-12-23T18:55:52.930Z,0.80
2022-12-23T18:58:22.026Z,0.50
2022-12-23T19:00:50.556Z,0.65
2022-12-23T19:03:25.112Z,0.52
2022-12-23T19:05:53.030Z,1.55
2022-12-23T19:08:26.295Z,0.70
2022-12-23T19:10:54.706Z,1.55
2022-12-23T19:13:24.085Z,2.05
2022-12-23T19:15:51.002Z,0.73
2022-12-23T19:18:20.599Z,0.50
2022-12-23T19:20:48.531Z,0.57
2022-12-23T19:23:16.348Z,0.40
2022-12-23T19:25:50.763Z,0.50
2022-12-23T19:28:21.653Z,0.50
2022-12-23T19:30:50.648Z,0.40
2022-12-23T19:33:23.871Z,0.45
2022-12-23T19:35:50.697Z,0.50
2022-12-23T19:38:19.523Z,0.70
2022-12-23T19:40:56.521Z,0.68
2022-12-23T19:43:23.399Z,0.50
2022-12-23T19:45:59.836Z,0.70
2022-12-23T19:48:27.712Z,0.57
2022-12-23T19:51:06.230Z,0.47
2022-12-23T19:53:34.350Z,0.50
2022-12-23T19:56:07.641Z,0.70
2022-12-23T19:58:37.851Z,0.70
2022-12-23T20:01:16.454Z,0.40
2022-12-23T20:03:44.552Z,0.57
2022-12-23T20:06:24.374Z,0.85
2022-12-23T20:08:56.366Z,0.30
2022-12-23T20:11:31.538Z,0.77
2022-12-23T20:14:01.132Z,1.05
2022-12-23T20:16:28.961Z,0.73
2022-12-23T20:18:56.516Z,0.90
2022-12-23T20:21:24.028Z,1.67
2022-12-23T20:26:18.969Z,18.92
2022-12-23T20:28:47.730Z,11.57
2022-12-23T20:31:20.331Z,3.75
2022-12-23T20:33:47.595Z,1.42
2022-12-23T20:36:18.236Z,1.40
2022-12-23T20:38:46.051Z,0.65
2022-12-23T20:41:16.178Z,3.40
2022-12-23T20:43:46.089Z,6.32
2022-12-23T20:46:20.040Z,5.07
2022-12-23T20:51:16.547Z,24.52
2022-12-23T20:53:45.744Z,25.70
2022-12-23T20:56:18.301Z,33.15
2022-12-23T20:59:02.307Z,10.55
2022-12-23T21:01:40.184Z,2.05
2022-12-23T21:04:17.049Z,1.33
2022-12-23T21:06:44.799Z,0.75
2022-12-23T21:09:15.694Z,0.40
2022-12-23T21:11:46.492Z,0.55
2022-12-23T21:14:14.650Z,0.30
2022-12-23T21:16:42.838Z,0.30
2022-12-23T21:19:15.802Z,0.20
2022-12-23T21:21:42.667Z,0.28
2022-12-23T21:24:09.678Z,0.30
2022-12-23T21:26:36.636Z,0.35
2022-12-23T21:29:06.787Z,0.25
2022-12-23T21:31:37.881Z,0.20
2022-12-23T21:34:06.315Z,0.20
2022-12-23T21:36:37.040Z,0.50
2022-12-23T21:39:05.099Z,0.63
2022-12-23T21:41:36.075Z,0.45
2022-12-23T21:44:04.851Z,0.40
2022-12-23T21:46:31.863Z,0.40
2022-12-23T21:48:59.171Z,0.40
2022-12-23T21:51:35.003Z,0.20
2022-12-23T21:54:05.680Z,0.25
2022-12-23T21:56:32.506Z,0.30
2022-12-23T21:59:04.810Z,0.30
2022-12-23T22:01:32.252Z,0.60
2022-12-23T22:03:59.303Z,0.77
2022-12-23T22:06:29.374Z,0.35
2022-12-23T22:08:56.908Z,0.38
2022-12-23T22:11:27.921Z,0.38
2022-12-23T22:13:56.723Z,0.45
2022-12-23T22:19:12.473Z,0.30
2022-12-23T22:21:42.772Z,0.20
2022-12-23T22:24:10.795Z,0.25
2022-12-23T22:26:39.189Z,0.10
2022-12-23T22:29:09.339Z,0.50
2022-12-23T22:31:41.636Z,0.20
2022-12-23T22:34:13.560Z,0.10
2022-12-23T22:36:49.970Z,0.20
2022-12-23T22:39:24.171Z,0.35
2022-12-23T22:41:52.049Z,0.20
2022-12-23T22:46:46.405Z,0.20
2022-12-23T22:49:15.324Z,0.20
2022-12-23T22:51:42.917Z,0.40
2022-12-23T22:56:37.162Z,0.10
2022-12-23T22:59:06.115Z,0.43
2022-12-23T23:01:37.750Z,0.20
2022-12-23T23:04:07.966Z,0.40
2022-12-23T23:06:38.452Z,0.25
2022-12-23T23:09:07.495Z,0.30
2022-12-23T23:11:34.445Z,0.30
2022-12-23T23:14:01.546Z,0.30
2022-12-23T23:16:29.640Z,0.25
2022-12-23T23:18:56.404Z,0.40
2022-12-23T23:21:23.192Z,0.47
2022-12-23T23:23:54.926Z,0.50
2022-12-23T23:26:22.001Z,0.70
2022-12-23T23:28:48.926Z,0.80
2022-12-23T23:34:03.417Z,0.60
2022-12-23T23:36:30.231Z,0.38
2022-12-23T23:38:57.988Z,0.68
2022-12-23T23:41:24.852Z,0.57
2022-12-23T23:43:54.096Z,1.05
2022-12-23T23:46:20.868Z,0.63
2022-12-23T23:48:47.636Z,0.65
2022-12-23T23:51:14.903Z,0.50
2022-12-23T23:53:42.692Z,0.55
2022-12-23T23:56:09.612Z,0.90
2022-12-23T23:58:37.217Z,0.70
